sensor_id;sensor_type;location;lat;lon;timestamp;P1;durP1;ratioP1;P2;durP2;ratioP2
12218;SDS011;6172;42.646;23.344;2023-08-06T00:01:18;3.60;;;2.30;;
12218;SDS011;6172;42.646;23.344;2023-08-06T00:03:46;2.55;;;2.28;;
12218;SDS011;6172;42.646;23.344;2023-08-06T00:06:13;2.95;;;2.30;;
12218;SDS011;6172;42.646;23.344;2023-08-06T00:08:40;4.53;;;2.50;;
12218;SDS011;6172;42.646;23.344;2023-08-06T00:11:06;3.05;;;2.75;;
12218;SDS011;6172;42.646;23.344;2023-08-06T00:13:33;5.68;;;2.58;;
12218;SDS011;6172;42.646;23.344;2023-08-06T00:16:09;4.95;;;2.25;;
12218;SDS011;6172;42.646;23.344;2023-08-06T00:18:36;3.33;;;2.47;;
12218;SDS011;6172;42.646;23.344;2023-08-06T00:21:03;2.97;;;2.00;;
12218;SDS011;6172;42.646;23.344;2023-08-06T00:23:30;2.83;;;2.13;;
12218;SDS011;6172;42.646;23.344;2023-08-06T00:25:57;4.18;;;2.90;;
12218;SDS011;6172;42.646;23.344;2023-08-06T00:28:24;2.72;;;2.50;;
12218;SDS011;6172;42.646;23.344;2023-08-06T00:30:52;2.75;;;2.40;;
12218;SDS011;6172;42.646;23.344;2023-08-06T00:33:20;3.13;;;2.72;;
12218;SDS011;6172;42.646;23.344;2023-08-06T00:35:48;3.10;;;2.65;;
12218;SDS011;6172;42.646;23.344;2023-08-06T00:38:14;3.25;;;2.53;;
12218;SDS011;6172;42.646;23.344;2023-08-06T00:40:41;3.00;;;2.50;;
12218;SDS011;6172;42.646;23.344;2023-08-06T00:43:08;3.03;;;2.28;;
12218;SDS011;6172;42.646;23.344;2023-08-06T00:45:35;2.97;;;2.22;;
12218;SDS011;6172;42.646;23.344;2023-08-06T00:48:03;2.35;;;2.22;;
12218;SDS011;6172;42.646;23.344;2023-08-06T00:50:33;4.10;;;2.42;;
12218;SDS011;6172;42.646;23.344;2023-08-06T00:53:00;3.60;;;2.28;;
12218;SDS011;6172;42.646;23.344;2023-08-06T00:55:28;2.25;;;1.98;;
12218;SDS011;6172;42.646;23.344;2023-08-06T00:57:55;3.05;;;2.50;;
12218;SDS011;6172;42.646;23.344;2023-08-06T01:00:22;2.78;;;2.22;;
12218;SDS011;6172;42.646;23.344;2023-08-06T01:02:53;3.50;;;2.05;;
12218;SDS011;6172;42.646;23.344;2023-08-06T01:05:20;3.28;;;2.33;;
12218;SDS011;6172;42.646;23.344;2023-08-06T01:07:51;4.10;;;2.85;;
12218;SDS011;6172;42.646;23.344;2023-08-06T01:10:38;3.42;;;2.45;;
12218;SDS011;6172;42.646;23.344;2023-08-06T01:13:24;4.22;;;2.80;;
12218;SDS011;6172;42.646;23.344;2023-08-06T01:15:58;2.70;;;2.50;;
12218;SDS011;6172;42.646;23.344;2023-08-06T01:18:27;3.20;;;2.65;;
12218;SDS011;6172;42.646;23.344;2023-08-06T01:20:56;5.25;;;2.72;;
12218;SDS011;6172;42.646;23.344;2023-08-06T01:23:22;3.00;;;2.72;;
12218;SDS011;6172;42.646;23.344;2023-08-06T01:26:02;3.67;;;3.03;;
12218;SDS011;6172;42.646;23.344;2023-08-06T01:28:39;3.75;;;2.83;;
12218;SDS011;6172;42.646;23.344;2023-08-06T01:31:10;3.05;;;2.75;;
12218;SDS011;6172;42.646;23.344;2023-08-06T01:33:45;3.85;;;3.00;;
12218;SDS011;6172;42.646;23.344;2023-08-06T01:36:15;4.35;;;3.70;;
12218;SDS011;6172;42.646;23.344;2023-08-06T01:38:43;4.70;;;3.70;;
12218;SDS011;6172;42.646;23.344;2023-08-06T01:41:10;5.43;;;3.80;;
12218;SDS011;6172;42.646;23.344;2023-08-06T01:43:37;4.10;;;3.45;;
12218;SDS011;6172;42.646;23.344;2023-08-06T01:46:04;3.63;;;3.33;;
12218;SDS011;6172;42.646;23.344;2023-08-06T01:48:31;3.67;;;3.30;;
12218;SDS011;6172;42.646;23.344;2023-08-06T01:50:57;7.75;;;4.32;;
12218;SDS011;6172;42.646;23.344;2023-08-06T01:53:26;5.40;;;4.28;;
12218;SDS011;6172;42.646;23.344;2023-08-06T01:55:52;5.32;;;3.90;;
12218;SDS011;6172;42.646;23.344;2023-08-06T01:58:19;5.35;;;4.05;;
12218;SDS011;6172;42.646;23.344;2023-08-06T02:00:46;3.90;;;3.55;;
12218;SDS011;6172;42.646;23.344;2023-08-06T02:03:13;4.78;;;3.67;;
12218;SDS011;6172;42.646;23.344;2023-08-06T02:05:39;4.22;;;3.47;;
12218;SDS011;6172;42.646;23.344;2023-08-06T02:08:06;5.22;;;3.22;;
12218;SDS011;6172;42.646;23.344;2023-08-06T02:10:34;3.65;;;3.30;;
12218;SDS011;6172;42.646;23.344;2023-08-06T02:13:01;4.60;;;3.47;;
12218;SDS011;6172;42.646;23.344;2023-08-06T02:15:28;4.07;;;3.67;;
12218;SDS011;6172;42.646;23.344;2023-08-06T02:17:55;3.30;;;3.00;;
12218;SDS011;6172;42.646;23.344;2023-08-06T02:20:21;5.38;;;3.13;;
12218;SDS011;6172;42.646;23.344;2023-08-06T02:22:48;4.13;;;3.22;;
12218;SDS011;6172;42.646;23.344;2023-08-06T02:25:15;4.45;;;3.13;;
12218;SDS011;6172;42.646;23.344;2023-08-06T02:27:43;2.78;;;2.58;;
12218;SDS011;6172;42.646;23.344;2023-08-06T02:30:10;3.47;;;2.83;;
12218;SDS011;6172;42.646;23.344;2023-08-06T02:32:37;2.92;;;2.58;;
12218;SDS011;6172;42.646;23.344;2023-08-06T02:35:04;3.17;;;2.63;;
12218;SDS011;6172;42.646;23.344;2023-08-06T02:37:32;4.53;;;2.90;;
12218;SDS011;6172;42.646;23.344;2023-08-06T02:39:59;6.65;;;3.38;;
12218;SDS011;6172;42.646;23.344;2023-08-06T02:42:27;5.00;;;3.42;;
12218;SDS011;6172;42.646;23.344;2023-08-06T02:44:55;7.88;;;3.50;;
12218;SDS011;6172;42.646;23.344;2023-08-06T02:47:22;4.03;;;2.90;;
12218;SDS011;6172;42.646;23.344;2023-08-06T02:49:49;5.13;;;3.17;;
12218;SDS011;6172;42.646;23.344;2023-08-06T02:52:15;3.05;;;2.75;;
12218;SDS011;6172;42.646;23.344;2023-08-06T02:54:43;4.47;;;2.90;;
12218;SDS011;6172;42.646;23.344;2023-08-06T02:57:09;5.35;;;3.25;;
12218;SDS011;6172;42.646;23.344;2023-08-06T02:59:36;3.53;;;2.83;;
12218;SDS011;6172;42.646;23.344;2023-08-06T03:02:05;5.40;;;3.38;;
12218;SDS011;6172;42.646;23.344;2023-08-06T03:04:31;4.35;;;3.08;;
12218;SDS011;6172;42.646;23.344;2023-08-06T03:06:58;5.65;;;3.33;;
12218;SDS011;6172;42.646;23.344;2023-08-06T03:09:25;5.13;;;3.25;;
12218;SDS011;6172;42.646;23.344;2023-08-06T03:11:52;4.82;;;2.60;;
12218;SDS011;6172;42.646;23.344;2023-08-06T03:14:18;3.50;;;2.55;;
12218;SDS011;6172;42.646;23.344;2023-08-06T03:16:45;5.22;;;2.83;;
12218;SDS011;6172;42.646;23.344;2023-08-06T03:19:13;3.00;;;2.40;;
12218;SDS011;6172;42.646;23.344;2023-08-06T03:21:40;3.70;;;2.35;;
12218;SDS011;6172;42.646;23.344;2023-08-06T03:24:07;5.13;;;3.10;;
12218;SDS011;6172;42.646;23.344;2023-08-06T03:26:33;3.17;;;2.88;;
12218;SDS011;6172;42.646;23.344;2023-08-06T03:29:00;3.08;;;2.88;;
12218;SDS011;6172;42.646;23.344;2023-08-06T03:31:27;3.13;;;2.83;;
12218;SDS011;6172;42.646;23.344;2023-08-06T03:33:53;2.95;;;2.63;;
12218;SDS011;6172;42.646;23.344;2023-08-06T03:36:22;3.97;;;2.55;;
12218;SDS011;6172;42.646;23.344;2023-08-06T03:38:48;3.35;;;3.05;;
12218;SDS011;6172;42.646;23.344;2023-08-06T03:41:15;4.65;;;2.83;;
12218;SDS011;6172;42.646;23.344;2023-08-06T03:43:42;5.78;;;2.90;;
12218;SDS011;6172;42.646;23.344;2023-08-06T03:46:08;3.60;;;2.88;;
12218;SDS011;6172;42.646;23.344;2023-08-06T03:48:35;3.63;;;3.22;;
12218;SDS011;6172;42.646;23.344;2023-08-06T03:51:02;3.67;;;3.00;;
12218;SDS011;6172;42.646;23.344;2023-08-06T03:53:30;3.25;;;2.92;;
12218;SDS011;6172;42.646;23.344;2023-08-06T03:55:57;3.10;;;2.78;;
12218;SDS011;6172;42.646;23.344;2023-08-06T03:58:25;3.17;;;2.88;;
12218;SDS011;6172;42.646;23.344;2023-08-06T04:00:57;3.88;;;3.05;;
12218;SDS011;6172;42.646;23.344;2023-08-06T04:03:24;3.33;;;3.03;;
12218;SDS011;6172;42.646;23.344;2023-08-06T04:05:51;3.42;;;3.10;;
12218;SDS011;6172;42.646;23.344;2023-08-06T04:08:18;4.53;;;2.70;;
12218;SDS011;6172;42.646;23.344;2023-08-06T04:10:48;5.70;;;3.50;;
12218;SDS011;6172;42.646;23.344;2023-08-06T04:13:15;3.95;;;3.15;;
12218;SDS011;6172;42.646;23.344;2023-08-06T04:15:42;5.15;;;3.70;;
12218;SDS011;6172;42.646;23.344;2023-08-06T04:18:09;5.05;;;3.50;;
12218;SDS011;6172;42.646;23.344;2023-08-06T04:20:42;6.78;;;3.15;;
12218;SDS011;6172;42.646;23.344;2023-08-06T04:23:09;3.95;;;3.42;;
12218;SDS011;6172;42.646;23.344;2023-08-06T04:25:36;5.60;;;3.33;;
12218;SDS011;6172;42.646;23.344;2023-08-06T04:28:04;3.35;;;3.05;;
12218;SDS011;6172;42.646;23.344;2023-08-06T04:30:31;3.45;;;3.15;;
12218;SDS011;6172;42.646;23.344;2023-08-06T04:32:58;4.00;;;3.17;;
12218;SDS011;6172;42.646;23.344;2023-08-06T04:35:24;4.15;;;3.75;;
12218;SDS011;6172;42.646;23.344;2023-08-06T04:37:51;4.00;;;3.35;;
12218;SDS011;6172;42.646;23.344;2023-08-06T04:40:18;3.83;;;3.10;;
12218;SDS011;6172;42.646;23.344;2023-08-06T04:42:45;3.42;;;3.03;;
12218;SDS011;6172;42.646;23.344;2023-08-06T04:45:13;4.55;;;2.90;;
12218;SDS011;6172;42.646;23.344;2023-08-06T04:47:39;3.50;;;3.20;;
12218;SDS011;6172;42.646;23.344;2023-08-06T04:50:06;3.15;;;2.95;;
12218;SDS011;6172;42.646;23.344;2023-08-06T04:52:33;2.70;;;2.50;;
12218;SDS011;6172;42.646;23.344;2023-08-06T04:55:01;3.15;;;2.63;;
12218;SDS011;6172;42.646;23.344;2023-08-06T04:57:28;2.92;;;2.65;;
12218;SDS011;6172;42.646;23.344;2023-08-06T04:59:55;3.28;;;3.00;;
12218;SDS011;6172;42.646;23.344;2023-08-06T05:02:23;2.70;;;2.50;;
12218;SDS011;6172;42.646;23.344;2023-08-06T05:04:50;4.10;;;3.20;;
12218;SDS011;6172;42.646;23.344;2023-08-06T05:07:17;5.15;;;3.55;;
12218;SDS011;6172;42.646;23.344;2023-08-06T05:09:43;3.80;;;3.30;;
12218;SDS011;6172;42.646;23.344;2023-08-06T05:12:10;4.22;;;3.28;;
12218;SDS011;6172;42.646;23.344;2023-08-06T05:14:37;3.17;;;2.72;;
12218;SDS011;6172;42.646;23.344;2023-08-06T05:17:04;3.38;;;3.08;;
12218;SDS011;6172;42.646;23.344;2023-08-06T05:19:32;6.15;;;4.32;;
12218;SDS011;6172;42.646;23.344;2023-08-06T05:21:59;4.78;;;4.03;;
12218;SDS011;6172;42.646;23.344;2023-08-06T05:24:26;6.13;;;4.30;;
12218;SDS011;6172;42.646;23.344;2023-08-06T05:26:52;4.80;;;3.65;;
12218;SDS011;6172;42.646;23.344;2023-08-06T05:29:19;5.07;;;4.20;;
12218;SDS011;6172;42.646;23.344;2023-08-06T05:31:46;4.68;;;4.28;;
12218;SDS011;6172;42.646;23.344;2023-08-06T05:34:13;6.60;;;5.38;;
12218;SDS011;6172;42.646;23.344;2023-08-06T05:36:41;8.02;;;7.20;;
12218;SDS011;6172;42.646;23.344;2023-08-06T05:39:08;10.00;;;8.10;;
12218;SDS011;6172;42.646;23.344;2023-08-06T05:41:34;10.93;;;9.23;;
12218;SDS011;6172;42.646;23.344;2023-08-06T05:44:01;10.25;;;8.73;;
12218;SDS011;6172;42.646;23.344;2023-08-06T05:46:28;11.63;;;8.20;;
12218;SDS011;6172;42.646;23.344;2023-08-06T05:48:54;8.95;;;6.93;;
12218;SDS011;6172;42.646;23.344;2023-08-06T05:51:21;9.27;;;6.82;;
12218;SDS011;6172;42.646;23.344;2023-08-06T05:53:50;7.03;;;6.32;;
12218;SDS011;6172;42.646;23.344;2023-08-06T05:56:16;6.18;;;5.63;;
12218;SDS011;6172;42.646;23.344;2023-08-06T05:58:43;6.32;;;5.15;;
12218;SDS011;6172;42.646;23.344;2023-08-06T06:01:11;4.63;;;4.22;;
12218;SDS011;6172;42.646;23.344;2023-08-06T06:03:38;6.05;;;4.72;;
12218;SDS011;6172;42.646;23.344;2023-08-06T06:06:05;5.70;;;5.30;;
12218;SDS011;6172;42.646;23.344;2023-08-06T06:08:32;6.05;;;5.55;;
12218;SDS011;6172;42.646;23.344;2023-08-06T06:11:00;5.68;;;5.18;;
12218;SDS011;6172;42.646;23.344;2023-08-06T06:13:27;5.10;;;4.68;;
12218;SDS011;6172;42.646;23.344;2023-08-06T06:15:54;4.80;;;4.40;;
12218;SDS011;6172;42.646;23.344;2023-08-06T06:18:21;3.80;;;3.50;;
12218;SDS011;6172;42.646;23.344;2023-08-06T06:20:48;4.40;;;3.63;;
12218;SDS011;6172;42.646;23.344;2023-08-06T06:23:15;4.10;;;3.80;;
12218;SDS011;6172;42.646;23.344;2023-08-06T06:25:42;4.15;;;3.15;;
12218;SDS011;6172;42.646;23.344;2023-08-06T06:28:11;3.28;;;2.60;;
12218;SDS011;6172;42.646;23.344;2023-08-06T06:30:37;2.58;;;2.33;;
12218;SDS011;6172;42.646;23.344;2023-08-06T06:33:04;3.20;;;2.28;;
12218;SDS011;6172;42.646;23.344;2023-08-06T06:35:31;2.10;;;1.80;;
12218;SDS011;6172;42.646;23.344;2023-08-06T06:37:58;2.13;;;1.98;;
12218;SDS011;6172;42.646;23.344;2023-08-06T06:40:25;4.30;;;2.47;;
12218;SDS011;6172;42.646;23.344;2023-08-06T06:42:51;1.98;;;1.73;;
12218;SDS011;6172;42.646;23.344;2023-08-06T06:45:20;2.55;;;2.05;;
12218;SDS011;6172;42.646;23.344;2023-08-06T06:47:46;2.40;;;1.98;;
12218;SDS011;6172;42.646;23.344;2023-08-06T06:50:13;1.85;;;1.75;;
12218;SDS011;6172;42.646;23.344;2023-08-06T06:52:40;1.33;;;1.23;;
12218;SDS011;6172;42.646;23.344;2023-08-06T06:55:07;1.10;;;1.10;;
12218;SDS011;6172;42.646;23.344;2023-08-06T06:57:34;1.50;;;1.40;;
12218;SDS011;6172;42.646;23.344;2023-08-06T07:00:01;1.70;;;1.50;;
12218;SDS011;6172;42.646;23.344;2023-08-06T07:02:29;1.73;;;1.60;;
12218;SDS011;6172;42.646;23.344;2023-08-06T07:04:56;2.80;;;2.60;;
12218;SDS011;6172;42.646;23.344;2023-08-06T07:07:23;2.95;;;2.75;;
12218;SDS011;6172;42.646;23.344;2023-08-06T07:09:50;4.00;;;3.63;;
12218;SDS011;6172;42.646;23.344;2023-08-06T07:12:17;4.55;;;4.15;;
12218;SDS011;6172;42.646;23.344;2023-08-06T07:14:43;3.80;;;3.53;;
12218;SDS011;6172;42.646;23.344;2023-08-06T07:17:10;3.45;;;3.10;;
12218;SDS011;6172;42.646;23.344;2023-08-06T07:19:38;4.35;;;3.95;;
12218;SDS011;6172;42.646;23.344;2023-08-06T07:22:05;4.13;;;3.67;;
12218;SDS011;6172;42.646;23.344;2023-08-06T07:24:32;4.07;;;3.13;;
12218;SDS011;6172;42.646;23.344;2023-08-06T07:26:59;3.15;;;2.83;;
12218;SDS011;6172;42.646;23.344;2023-08-06T07:29:26;3.10;;;2.90;;
12218;SDS011;6172;42.646;23.344;2023-08-06T07:31:53;2.90;;;2.70;;
12218;SDS011;6172;42.646;23.344;2023-08-06T07:34:20;1.75;;;1.63;;
12218;SDS011;6172;42.646;23.344;2023-08-06T07:36:49;1.95;;;1.75;;
12218;SDS011;6172;42.646;23.344;2023-08-06T07:39:16;1.35;;;1.35;;
12218;SDS011;6172;42.646;23.344;2023-08-06T07:41:42;2.90;;;1.60;;
12218;SDS011;6172;42.646;23.344;2023-08-06T07:44:11;1.50;;;1.50;;
12218;SDS011;6172;42.646;23.344;2023-08-06T07:46:37;1.75;;;1.35;;
12218;SDS011;6172;42.646;23.344;2023-08-06T07:49:05;1.38;;;1.38;;
12218;SDS011;6172;42.646;23.344;2023-08-06T07:51:31;1.50;;;1.40;;
12218;SDS011;6172;42.646;23.344;2023-08-06T07:54:00;1.63;;;1.40;;
12218;SDS011;6172;42.646;23.344;2023-08-06T07:56:26;1.50;;;1.40;;
12218;SDS011;6172;42.646;23.344;2023-08-06T07:58:53;4.35;;;1.95;;
12218;SDS011;6172;42.646;23.344;2023-08-06T08:01:20;1.65;;;1.40;;
12218;SDS011;6172;42.646;23.344;2023-08-06T08:03:47;1.52;;;1.40;;
12218;SDS011;6172;42.646;23.344;2023-08-06T08:06:16;1.55;;;1.52;;
12218;SDS011;6172;42.646;23.344;2023-08-06T08:08:42;1.60;;;1.50;;
12218;SDS011;6172;42.646;23.344;2023-08-06T08:11:11;2.00;;;1.52;;
12218;SDS011;6172;42.646;23.344;2023-08-06T08:13:37;1.80;;;1.70;;
12218;SDS011;6172;42.646;23.344;2023-08-06T08:16:04;2.28;;;2.08;;
12218;SDS011;6172;42.646;23.344;2023-08-06T08:18:32;1.75;;;1.65;;
12218;SDS011;6172;42.646;23.344;2023-08-06T08:20:59;1.90;;;1.80;;
12218;SDS011;6172;42.646;23.344;2023-08-06T08:23:25;1.70;;;1.60;;
12218;SDS011;6172;42.646;23.344;2023-08-06T08:25:52;1.77;;;1.67;;
12218;SDS011;6172;42.646;23.344;2023-08-06T08:28:21;1.90;;;1.80;;
12218;SDS011;6172;42.646;23.344;2023-08-06T08:30:48;1.90;;;1.80;;
12218;SDS011;6172;42.646;23.344;2023-08-06T08:33:14;2.15;;;2.00;;
12218;SDS011;6172;42.646;23.344;2023-08-06T08:35:41;2.40;;;2.08;;
12218;SDS011;6172;42.646;23.344;2023-08-06T08:38:08;2.00;;;1.90;;
12218;SDS011;6172;42.646;23.344;2023-08-06T08:40:35;1.98;;;1.88;;
12218;SDS011;6172;42.646;23.344;2023-08-06T08:43:13;2.20;;;1.70;;
12218;SDS011;6172;42.646;23.344;2023-08-06T08:45:42;2.05;;;1.95;;
12218;SDS011;6172;42.646;23.344;2023-08-06T08:48:14;2.10;;;2.00;;
12218;SDS011;6172;42.646;23.344;2023-08-06T08:50:44;1.92;;;1.80;;
12218;SDS011;6172;42.646;23.344;2023-08-06T08:53:13;1.92;;;1.70;;
12218;SDS011;6172;42.646;23.344;2023-08-06T08:55:42;2.70;;;1.55;;
12218;SDS011;6172;42.646;23.344;2023-08-06T08:58:10;2.03;;;1.92;;
12218;SDS011;6172;42.646;23.344;2023-08-06T09:00:37;1.98;;;1.88;;
12218;SDS011;6172;42.646;23.344;2023-08-06T09:03:11;2.00;;;1.90;;
12218;SDS011;6172;42.646;23.344;2023-08-06T09:05:39;1.83;;;1.73;;
12218;SDS011;6172;42.646;23.344;2023-08-06T09:08:11;2.20;;;1.85;;
12218;SDS011;6172;42.646;23.344;2023-08-06T09:10:41;1.88;;;1.73;;
12218;SDS011;6172;42.646;23.344;2023-08-06T09:13:10;1.52;;;1.42;;
12218;SDS011;6172;42.646;23.344;2023-08-06T09:15:37;2.17;;;2.05;;
12218;SDS011;6172;42.646;23.344;2023-08-06T09:18:10;2.35;;;1.88;;
12218;SDS011;6172;42.646;23.344;2023-08-06T09:20:38;1.98;;;1.60;;
12218;SDS011;6172;42.646;23.344;2023-08-06T09:23:07;1.83;;;1.73;;
12218;SDS011;6172;42.646;23.344;2023-08-06T09:25:36;2.90;;;1.65;;
12218;SDS011;6172;42.646;23.344;2023-08-06T09:28:04;1.92;;;1.83;;
12218;SDS011;6172;42.646;23.344;2023-08-06T09:30:32;2.63;;;1.80;;
12218;SDS011;6172;42.646;23.344;2023-08-06T09:33:00;1.88;;;1.77;;
12218;SDS011;6172;42.646;23.344;2023-08-06T09:35:29;1.92;;;1.67;;
12218;SDS011;6172;42.646;23.344;2023-08-06T09:38:03;1.85;;;1.40;;
12218;SDS011;6172;42.646;23.344;2023-08-06T09:40:32;1.95;;;1.85;;
12218;SDS011;6172;42.646;23.344;2023-08-06T09:42:59;1.52;;;1.50;;
12218;SDS011;6172;42.646;23.344;2023-08-06T09:45:28;1.92;;;1.40;;
12218;SDS011;6172;42.646;23.344;2023-08-06T09:47:58;2.92;;;1.38;;
12218;SDS011;6172;42.646;23.344;2023-08-06T09:50:29;1.75;;;1.17;;
12218;SDS011;6172;42.646;23.344;2023-08-06T09:52:58;2.10;;;1.98;;
12218;SDS011;6172;42.646;23.344;2023-08-06T09:55:26;2.33;;;2.22;;
12218;SDS011;6172;42.646;23.344;2023-08-06T09:57:53;2.83;;;1.52;;
12218;SDS011;6172;42.646;23.344;2023-08-06T10:00:20;1.52;;;1.38;;
12218;SDS011;6172;42.646;23.344;2023-08-06T10:02:48;3.22;;;1.40;;
12218;SDS011;6172;42.646;23.344;2023-08-06T10:05:16;1.30;;;1.23;;
12218;SDS011;6172;42.646;23.344;2023-08-06T10:07:45;1.65;;;1.55;;
12218;SDS011;6172;42.646;23.344;2023-08-06T10:10:15;1.23;;;1.20;;
12218;SDS011;6172;42.646;23.344;2023-08-06T10:12:43;1.40;;;1.27;;
12218;SDS011;6172;42.646;23.344;2023-08-06T10:15:13;1.10;;;1.05;;
12218;SDS011;6172;42.646;23.344;2023-08-06T10:17:42;2.08;;;1.40;;
12218;SDS011;6172;42.646;23.344;2023-08-06T10:20:13;1.90;;;1.42;;
12218;SDS011;6172;42.646;23.344;2023-08-06T10:22:42;1.38;;;1.27;;
12218;SDS011;6172;42.646;23.344;2023-08-06T10:25:13;2.28;;;1.70;;
12218;SDS011;6172;42.646;23.344;2023-08-06T10:27:53;1.90;;;1.80;;
12218;SDS011;6172;42.646;23.344;2023-08-06T10:30:21;2.83;;;1.27;;
12218;SDS011;6172;42.646;23.344;2023-08-06T10:32:50;2.47;;;1.52;;
12218;SDS011;6172;42.646;23.344;2023-08-06T10:35:30;1.48;;;1.40;;
12218;SDS011;6172;42.646;23.344;2023-08-06T10:37:58;1.75;;;1.60;;
12218;SDS011;6172;42.646;23.344;2023-08-06T10:40:28;1.50;;;1.40;;
12218;SDS011;6172;42.646;23.344;2023-08-06T10:43:00;2.17;;;1.30;;
12218;SDS011;6172;42.646;23.344;2023-08-06T10:45:27;1.10;;;1.00;;
12218;SDS011;6172;42.646;23.344;2023-08-06T10:47:55;2.22;;;1.20;;
12218;SDS011;6172;42.646;23.344;2023-08-06T10:50:23;1.67;;;1.40;;
12218;SDS011;6172;42.646;23.344;2023-08-06T10:52:51;1.65;;;1.10;;
12218;SDS011;6172;42.646;23.344;2023-08-06T10:55:24;1.67;;;1.50;;
12218;SDS011;6172;42.646;23.344;2023-08-06T10:57:53;1.45;;;1.35;;
12218;SDS011;6172;42.646;23.344;2023-08-06T11:00:21;2.42;;;1.65;;
12218;SDS011;6172;42.646;23.344;2023-08-06T11:02:49;3.13;;;1.38;;
12218;SDS011;6172;42.646;23.344;2023-08-06T11:05:18;2.22;;;1.80;;
12218;SDS011;6172;42.646;23.344;2023-08-06T11:07:44;3.20;;;1.60;;
12218;SDS011;6172;42.646;23.344;2023-08-06T11:10:14;1.17;;;1.10;;
12218;SDS011;6172;42.646;23.344;2023-08-06T11:12:41;2.15;;;1.88;;
12218;SDS011;6172;42.646;23.344;2023-08-06T11:15:10;1.80;;;1.70;;
12218;SDS011;6172;42.646;23.344;2023-08-06T11:17:37;1.50;;;1.40;;
12218;SDS011;6172;42.646;23.344;2023-08-06T11:20:07;2.85;;;1.75;;
12218;SDS011;6172;42.646;23.344;2023-08-06T11:22:35;1.50;;;1.40;;
12218;SDS011;6172;42.646;23.344;2023-08-06T11:25:03;2.63;;;1.85;;
12218;SDS011;6172;42.646;23.344;2023-08-06T11:27:30;2.28;;;1.63;;
12218;SDS011;6172;42.646;23.344;2023-08-06T11:29:57;2.45;;;1.65;;
12218;SDS011;6172;42.646;23.344;2023-08-06T11:32:25;3.60;;;1.17;;
12218;SDS011;6172;42.646;23.344;2023-08-06T11:34:52;1.42;;;1.33;;
12218;SDS011;6172;42.646;23.344;2023-08-06T11:37:21;1.63;;;1.23;;
12218;SDS011;6172;42.646;23.344;2023-08-06T11:39:50;2.47;;;1.35;;
12218;SDS011;6172;42.646;23.344;2023-08-06T11:42:19;4.43;;;1.85;;
12218;SDS011;6172;42.646;23.344;2023-08-06T11:44:45;2.35;;;1.88;;
12218;SDS011;6172;42.646;23.344;2023-08-06T11:47:14;2.72;;;1.70;;
12218;SDS011;6172;42.646;23.344;2023-08-06T11:49:44;4.13;;;2.40;;
12218;SDS011;6172;42.646;23.344;2023-08-06T11:52:16;2.65;;;1.90;;
12218;SDS011;6172;42.646;23.344;2023-08-06T11:54:45;2.55;;;2.05;;
12218;SDS011;6172;42.646;23.344;2023-08-06T11:57:13;2.40;;;2.30;;
12218;SDS011;6172;42.646;23.344;2023-08-06T11:59:42;3.53;;;2.47;;
12218;SDS011;6172;42.646;23.344;2023-08-06T12:02:09;2.72;;;2.47;;
12218;SDS011;6172;42.646;23.344;2023-08-06T12:07:31;2.22;;;2.03;;
12218;SDS011;6172;42.646;23.344;2023-08-06T12:09:59;2.40;;;1.98;;
12218;SDS011;6172;42.646;23.344;2023-08-06T12:12:26;2.13;;;2.03;;
12218;SDS011;6172;42.646;23.344;2023-08-06T12:14:53;2.20;;;2.00;;
12218;SDS011;6172;42.646;23.344;2023-08-06T12:17:21;2.15;;;1.95;;
12218;SDS011;6172;42.646;23.344;2023-08-06T12:19:48;3.38;;;2.63;;
12218;SDS011;6172;42.646;23.344;2023-08-06T12:22:16;2.90;;;2.70;;
12218;SDS011;6172;42.646;23.344;2023-08-06T12:24:44;3.17;;;2.97;;
12218;SDS011;6172;42.646;23.344;2023-08-06T12:27:12;3.42;;;2.75;;
12218;SDS011;6172;42.646;23.344;2023-08-06T12:29:40;3.50;;;3.20;;
12218;SDS011;6172;42.646;23.344;2023-08-06T12:32:08;3.80;;;3.00;;
12218;SDS011;6172;42.646;23.344;2023-08-06T12:34:35;3.33;;;2.78;;
12218;SDS011;6172;42.646;23.344;2023-08-06T12:37:04;3.40;;;3.13;;
12218;SDS011;6172;42.646;23.344;2023-08-06T12:39:32;3.70;;;3.35;;
12218;SDS011;6172;42.646;23.344;2023-08-06T12:41:59;4.00;;;3.70;;
12218;SDS011;6172;42.646;23.344;2023-08-06T12:44:26;4.15;;;3.70;;
12218;SDS011;6172;42.646;23.344;2023-08-06T12:46:53;3.83;;;3.50;;
12218;SDS011;6172;42.646;23.344;2023-08-06T12:49:20;3.83;;;3.53;;
12218;SDS011;6172;42.646;23.344;2023-08-06T12:51:47;4.22;;;3.83;;
12218;SDS011;6172;42.646;23.344;2023-08-06T12:54:15;4.38;;;3.75;;
12218;SDS011;6172;42.646;23.344;2023-08-06T12:56:44;4.18;;;3.60;;
12218;SDS011;6172;42.646;23.344;2023-08-06T12:59:13;4.05;;;3.75;;
12218;SDS011;6172;42.646;23.344;2023-08-06T13:01:41;3.92;;;3.63;;
12218;SDS011;6172;42.646;23.344;2023-08-06T13:04:08;3.92;;;2.90;;
12218;SDS011;6172;42.646;23.344;2023-08-06T13:06:36;4.07;;;3.78;;
12218;SDS011;6172;42.646;23.344;2023-08-06T13:09:04;3.78;;;3.47;;
12218;SDS011;6172;42.646;23.344;2023-08-06T13:11:32;4.25;;;3.75;;
12218;SDS011;6172;42.646;23.344;2023-08-06T13:14:04;3.40;;;3.15;;
12218;SDS011;6172;42.646;23.344;2023-08-06T13:16:32;3.75;;;3.55;;
12218;SDS011;6172;42.646;23.344;2023-08-06T13:18:59;3.65;;;3.33;;
12218;SDS011;6172;42.646;23.344;2023-08-06T13:21:32;3.60;;;3.30;;
12218;SDS011;6172;42.646;23.344;2023-08-06T13:24:00;4.30;;;3.90;;
12218;SDS011;6172;42.646;23.344;2023-08-06T13:26:28;2.72;;;2.63;;
12218;SDS011;6172;42.646;23.344;2023-08-06T13:28:56;3.80;;;3.40;;
12218;SDS011;6172;42.646;23.344;2023-08-06T13:31:25;5.05;;;3.70;;
12218;SDS011;6172;42.646;23.344;2023-08-06T13:33:53;3.70;;;3.40;;
12218;SDS011;6172;42.646;23.344;2023-08-06T13:36:20;4.18;;;3.78;;
12218;SDS011;6172;42.646;23.344;2023-08-06T13:38:47;5.10;;;4.28;;
12218;SDS011;6172;42.646;23.344;2023-08-06T13:41:14;3.70;;;3.40;;
12218;SDS011;6172;42.646;23.344;2023-08-06T13:43:41;4.13;;;3.42;;
12218;SDS011;6172;42.646;23.344;2023-08-06T13:46:07;3.85;;;3.40;;
12218;SDS011;6172;42.646;23.344;2023-08-06T13:48:36;3.60;;;3.30;;
12218;SDS011;6172;42.646;23.344;2023-08-06T13:51:18;3.75;;;3.47;;
12218;SDS011;6172;42.646;23.344;2023-08-06T13:53:45;3.83;;;3.40;;
12218;SDS011;6172;42.646;23.344;2023-08-06T13:56:12;3.33;;;3.03;;
12218;SDS011;6172;42.646;23.344;2023-08-06T13:58:40;3.70;;;3.03;;
12218;SDS011;6172;42.646;23.344;2023-08-06T14:01:09;3.00;;;2.80;;
12218;SDS011;6172;42.646;23.344;2023-08-06T14:03:39;3.40;;;3.20;;
12218;SDS011;6172;42.646;23.344;2023-08-06T14:06:06;3.35;;;2.80;;
12218;SDS011;6172;42.646;23.344;2023-08-06T14:08:33;3.00;;;2.90;;
12218;SDS011;6172;42.646;23.344;2023-08-06T14:11:00;3.67;;;3.38;;
12218;SDS011;6172;42.646;23.344;2023-08-06T14:13:26;3.65;;;3.08;;
12218;SDS011;6172;42.646;23.344;2023-08-06T14:15:53;3.85;;;2.88;;
12218;SDS011;6172;42.646;23.344;2023-08-06T14:18:20;4.43;;;3.10;;
12218;SDS011;6172;42.646;23.344;2023-08-06T14:20:48;3.65;;;3.25;;
12218;SDS011;6172;42.646;23.344;2023-08-06T14:23:15;3.13;;;2.92;;
12218;SDS011;6172;42.646;23.344;2023-08-06T14:25:42;3.33;;;2.97;;
12218;SDS011;6172;42.646;23.344;2023-08-06T14:28:09;3.45;;;3.10;;
12218;SDS011;6172;42.646;23.344;2023-08-06T14:30:35;2.70;;;2.50;;
12218;SDS011;6172;42.646;23.344;2023-08-06T14:33:02;4.68;;;3.03;;
12218;SDS011;6172;42.646;23.344;2023-08-06T14:35:29;3.80;;;3.00;;
12218;SDS011;6172;42.646;23.344;2023-08-06T14:37:58;3.72;;;3.22;;
12218;SDS011;6172;42.646;23.344;2023-08-06T14:40:24;3.30;;;3.00;;
12218;SDS011;6172;42.646;23.344;2023-08-06T14:42:53;4.75;;;3.10;;
12218;SDS011;6172;42.646;23.344;2023-08-06T14:45:22;3.65;;;2.90;;
12218;SDS011;6172;42.646;23.344;2023-08-06T14:47:57;2.80;;;2.60;;
12218;SDS011;6172;42.646;23.344;2023-08-06T14:50:24;3.13;;;2.90;;
12218;SDS011;6172;42.646;23.344;2023-08-06T14:52:51;3.33;;;3.03;;
12218;SDS011;6172;42.646;23.344;2023-08-06T14:55:24;3.33;;;3.03;;